createdAt,value
2019-03-13T00:01:10.891Z,2.30
2019-03-13T00:03:39.425Z,2.25
2019-03-13T00:06:08.415Z,2.33
2019-03-13T00:08:37.160Z,2.40
2019-03-13T00:11:08.309Z,2.20
2019-03-13T00:13:36.853Z,2.42
2019-03-13T00:16:05.296Z,2.00
2019-03-13T00:18:33.813Z,2.22
2019-03-13T00:21:02.260Z,1.82
2019-03-13T00:23:30.725Z,2.02
2019-03-13T00:25:59.442Z,1.50
2019-03-13T00:28:27.908Z,1.95
2019-03-13T00:30:56.415Z,1.67
2019-03-13T00:33:27.599Z,1.85
2019-03-13T00:35:56.025Z,2.10
2019-03-13T00:38:24.495Z,1.77
2019-03-13T00:40:52.953Z,1.60
2019-03-13T00:43:21.413Z,1.67
2019-03-13T00:45:49.861Z,1.90
2019-03-13T00:48:18.332Z,1.80
2019-03-13T00:50:47.035Z,1.62
2019-03-13T00:53:21.225Z,1.50
2019-03-13T00:55:49.667Z,1.67
2019-03-13T00:58:19.038Z,1.85
2019-03-13T01:00:49.284Z,1.70
2019-03-13T01:03:22.726Z,1.65
2019-03-13T01:06:09.261Z,1.70
2019-03-13T01:08:37.798Z,1.60
2019-03-13T01:11:06.618Z,1.70
2019-03-13T01:13:35.358Z,1.95
2019-03-13T01:16:03.867Z,1.10
2019-03-13T01:18:35.050Z,1.20
2019-03-13T01:21:03.498Z,1.22
2019-03-13T01:23:32.029Z,1.10
2019-03-13T01:26:00.536Z,1.10
2019-03-13T01:28:29.014Z,0.70
2019-03-13T01:31:02.076Z,0.70
2019-03-13T01:33:30.544Z,0.90
2019-03-13T01:36:03.616Z,0.70
2019-03-13T01:38:32.100Z,0.78
2019-03-13T01:41:00.534Z,0.60
2019-03-13T01:43:29.256Z,0.70
2019-03-13T01:45:57.778Z,0.80
2019-03-13T01:48:26.229Z,0.60
2019-03-13T01:50:54.691Z,0.50
2019-03-13T01:53:23.135Z,0.40
2019-03-13T01:55:51.601Z,0.42
2019-03-13T01:58:20.043Z,0.50
2019-03-13T02:00:48.802Z,0.40
2019-03-13T02:03:17.581Z,0.45
2019-03-13T02:05:46.376Z,0.30
2019-03-13T02:08:14.822Z,0.40
2019-03-13T02:10:43.288Z,0.30
2019-03-13T02:13:11.799Z,0.30
2019-03-13T02:15:40.585Z,0.30
2019-03-13T02:18:09.029Z,0.30
2019-03-13T02:20:40.448Z,0.40
2019-03-13T02:23:08.887Z,0.30
2019-03-13T02:25:37.454Z,0.28
2019-03-13T02:28:05.892Z,0.30
2019-03-13T02:30:34.768Z,0.20
2019-03-13T02:33:03.226Z,0.30
2019-03-13T02:35:31.755Z,0.30
2019-03-13T02:38:03.163Z,0.30
2019-03-13T02:40:31.956Z,0.23
2019-03-13T02:43:00.404Z,0.20
2019-03-13T02:45:28.856Z,0.20
2019-03-13T02:47:57.565Z,0.35
2019-03-13T02:50:26.028Z,0.28
2019-03-13T02:52:54.466Z,0.30
2019-03-13T02:55:23.004Z,0.20
2019-03-13T02:57:51.441Z,0.30
2019-03-13T03:00:27.606Z,0.20
2019-03-13T03:03:00.447Z,0.23
2019-03-13T03:05:28.908Z,0.28
2019-03-13T03:07:57.624Z,0.30
2019-03-13T03:10:26.079Z,0.30
2019-03-13T03:12:54.514Z,0.30
2019-03-13T03:15:22.971Z,0.30
2019-03-13T03:17:51.422Z,0.20
2019-03-13T03:20:22.806Z,0.30
2019-03-13T03:22:51.329Z,0.20
2019-03-13T03:25:19.857Z,0.20
2019-03-13T03:27:48.591Z,0.20
2019-03-13T03:30:22.531Z,0.20
2019-03-13T03:32:51.257Z,0.20
2019-03-13T03:35:25.960Z,0.30
2019-03-13T03:37:56.287Z,0.20
2019-03-13T03:40:24.820Z,0.20
2019-03-13T03:42:53.541Z,0.23
2019-03-13T03:45:22.068Z,0.40
2019-03-13T03:47:50.773Z,0.20
2019-03-13T03:50:20.196Z,0.20
2019-03-13T03:52:49.212Z,0.35
2019-03-13T03:55:20.694Z,0.30
2019-03-13T03:57:49.136Z,0.30
2019-03-13T04:00:18.936Z,0.30
2019-03-13T04:02:47.445Z,0.30
2019-03-13T04:05:16.158Z,0.30
2019-03-13T04:07:48.134Z,0.30
2019-03-13T04:10:17.051Z,0.30
2019-03-13T04:12:45.587Z,0.30
2019-03-13T04:15:15.415Z,0.30
2019-03-13T04:17:44.635Z,0.30
2019-03-13T04:20:18.746Z,0.40
2019-03-13T04:22:47.204Z,0.30
2019-03-13T04:25:27.230Z,0.20
2019-03-13T04:27:55.952Z,0.30
2019-03-13T04:30:24.446Z,0.30
2019-03-13T04:32:55.712Z,0.30
2019-03-13T04:35:24.147Z,0.30
2019-03-13T04:37:52.692Z,0.30
2019-03-13T04:40:21.216Z,0.30
2019-03-13T04:42:51.210Z,0.30
2019-03-13T04:45:21.454Z,0.40
2019-03-13T04:47:49.912Z,0.33
2019-03-13T04:50:18.355Z,0.60
2019-03-13T04:52:46.817Z,0.60
2019-03-13T04:55:16.787Z,0.70
2019-03-13T04:57:45.266Z,0.80
2019-03-13T05:00:20.491Z,1.20
2019-03-13T05:02:49.238Z,1.40
2019-03-13T05:05:44.246Z,1.47
2019-03-13T05:08:40.529Z,2.27
2019-03-13T05:11:04.989Z,3.22
2019-03-13T05:13:33.448Z,3.08
2019-03-13T05:16:02.251Z,3.27
2019-03-13T05:18:30.788Z,3.40
2019-03-13T05:20:59.248Z,3.62
2019-03-13T05:23:27.709Z,3.50
2019-03-13T05:25:56.411Z,5.10
2019-03-13T05:28:27.923Z,4.30
2019-03-13T05:30:56.365Z,3.90
2019-03-13T05:33:27.839Z,3.40
2019-03-13T05:35:56.287Z,3.25
2019-03-13T05:38:24.762Z,1.85
2019-03-13T05:40:53.281Z,2.20
2019-03-13T05:43:22.029Z,2.00
2019-03-13T05:45:50.734Z,1.70
2019-03-13T05:48:21.435Z,1.47
2019-03-13T05:50:52.743Z,1.27
2019-03-13T05:53:21.279Z,1.50
2019-03-13T05:55:49.716Z,1.25
2019-03-13T05:58:18.178Z,1.82
2019-03-13T06:00:46.625Z,1.22
2019-03-13T06:03:15.082Z,1.10
2019-03-13T06:05:43.530Z,1.20
2019-03-13T06:08:11.984Z,1.17
2019-03-13T06:10:40.448Z,1.05
2019-03-13T06:13:09.038Z,1.20
2019-03-13T06:15:37.490Z,1.10
2019-03-13T06:18:05.949Z,1.40
2019-03-13T06:20:36.015Z,1.20
2019-03-13T06:23:04.763Z,1.25
2019-03-13T06:25:33.201Z,1.20
2019-03-13T06:28:01.969Z,1.60
2019-03-13T06:30:30.879Z,2.95
2019-03-13T06:32:59.399Z,1.77
2019-03-13T06:35:28.123Z,1.90
2019-03-13T06:37:56.613Z,1.75
2019-03-13T06:40:25.132Z,1.67
2019-03-13T06:42:53.596Z,1.40
2019-03-13T06:45:23.478Z,2.02
2019-03-13T06:47:53.091Z,2.33
2019-03-13T06:50:26.006Z,1.72
2019-03-13T06:52:54.727Z,1.50
2019-03-13T06:55:23.168Z,1.02
2019-03-13T06:57:51.627Z,1.17
2019-03-13T07:00:26.862Z,1.55
2019-03-13T07:02:59.992Z,1.90
2019-03-13T07:05:54.039Z,1.60
2019-03-13T07:08:32.783Z,1.42
2019-03-13T07:11:21.237Z,1.85
2019-03-13T07:13:54.448Z,1.70
2019-03-13T07:16:39.696Z,1.10
2019-03-13T07:19:24.882Z,2.08
2019-03-13T07:24:30.267Z,1.47
2019-03-13T07:27:03.068Z,1.50
2019-03-13T07:29:35.633Z,1.17
2019-03-13T07:32:22.451Z,1.20
2019-03-13T07:35:09.115Z,1.12
2019-03-13T07:37:41.924Z,1.60
2019-03-13T07:40:21.639Z,1.30
2019-03-13T07:43:00.875Z,1.20
2019-03-13T07:45:31.297Z,1.60
2019-03-13T07:48:13.260Z,1.30
2019-03-13T07:50:48.744Z,0.80
2019-03-13T07:53:37.139Z,1.22
2019-03-13T07:56:07.515Z,0.72
2019-03-13T07:58:37.613Z,0.93
2019-03-13T08:01:10.475Z,1.20
2019-03-13T08:03:49.542Z,1.40
2019-03-13T08:06:36.487Z,1.57
2019-03-13T08:09:24.754Z,1.17
2019-03-13T08:11:55.132Z,0.93
2019-03-13T08:14:30.990Z,0.90
2019-03-13T08:17:10.066Z,1.05
2019-03-13T08:19:46.884Z,1.12
2019-03-13T08:22:32.895Z,0.98
2019-03-13T08:25:08.100Z,0.80
2019-03-13T08:27:43.540Z,0.90
2019-03-13T08:30:15.248Z,0.78
2019-03-13T08:32:45.342Z,0.90
2019-03-13T08:35:15.577Z,0.90
2019-03-13T08:37:45.695Z,0.95
2019-03-13T08:40:15.921Z,0.75
2019-03-13T08:43:02.273Z,0.80
2019-03-13T08:45:32.425Z,1.30
2019-03-13T08:48:11.294Z,1.05
2019-03-13T08:50:44.455Z,1.00
2019-03-13T08:53:20.830Z,0.90
2019-03-13T08:56:05.976Z,0.60
2019-03-13T09:01:06.050Z,1.70
2019-03-13T09:03:36.207Z,0.80
2019-03-13T09:06:15.797Z,1.00
2019-03-13T09:08:46.186Z,1.00
2019-03-13T09:11:22.598Z,1.10
2019-03-13T09:14:10.915Z,1.07
2019-03-13T09:16:50.324Z,1.10
2019-03-13T09:19:29.813Z,1.10
2019-03-13T09:22:05.731Z,0.90
2019-03-13T09:24:38.445Z,0.90
2019-03-13T09:27:23.517Z,0.95
2019-03-13T09:32:37.311Z,0.68
2019-03-13T09:35:09.047Z,0.80
2019-03-13T09:37:39.411Z,0.53
2019-03-13T09:40:17.974Z,0.60
2019-03-13T09:42:51.029Z,0.68
2019-03-13T09:45:27.073Z,0.47
2019-03-13T09:48:12.778Z,0.60
2019-03-13T09:50:42.988Z,0.85
2019-03-13T09:53:21.872Z,0.90
2019-03-13T09:55:58.276Z,0.82
2019-03-13T09:58:28.653Z,0.50
2019-03-13T10:01:14.996Z,0.60
2019-03-13T10:03:50.558Z,0.82
2019-03-13T10:06:23.885Z,0.60
2019-03-13T10:09:00.213Z,0.95
2019-03-13T10:11:31.790Z,0.50
2019-03-13T10:14:11.067Z,0.60
2019-03-13T10:16:41.167Z,0.60
2019-03-13T10:19:28.575Z,0.57
2019-03-13T10:22:04.703Z,0.88
2019-03-13T10:24:40.201Z,0.82
2019-03-13T10:27:10.315Z,0.90
2019-03-13T10:29:46.462Z,0.82
2019-03-13T10:32:31.574Z,0.88
2019-03-13T10:37:51.587Z,0.60
2019-03-13T10:40:36.724Z,0.72
2019-03-13T10:45:42.570Z,0.98
2019-03-13T10:48:21.751Z,0.90
2019-03-13T10:50:55.068Z,1.10
2019-03-13T10:53:27.827Z,0.90
2019-03-13T10:56:10.355Z,1.00
2019-03-13T10:58:46.535Z,0.90
2019-03-13T11:01:16.625Z,1.10
2019-03-13T11:03:52.474Z,0.90
2019-03-13T11:06:25.451Z,0.80
2019-03-13T11:09:17.112Z,1.10
2019-03-13T11:12:02.114Z,1.10
2019-03-13T11:14:44.175Z,1.30
2019-03-13T11:17:31.432Z,0.95
2019-03-13T11:20:11.904Z,1.05
2019-03-13T11:22:48.045Z,1.00
2019-03-13T11:25:18.119Z,1.07
2019-03-13T11:27:48.319Z,1.02
2019-03-13T11:30:24.563Z,1.35
2019-03-13T11:33:12.827Z,1.35
2019-03-13T11:35:42.903Z,1.47
2019-03-13T11:38:15.515Z,1.52
2019-03-13T11:41:00.844Z,1.40
2019-03-13T11:43:36.379Z,1.00
2019-03-13T11:46:06.983Z,0.90
2019-03-13T11:48:54.962Z,1.00
2019-03-13T11:51:27.647Z,1.40
2019-03-13T11:54:01.046Z,1.15
2019-03-13T11:56:47.718Z,1.20
2019-03-13T11:59:39.195Z,0.88
2019-03-13T12:02:27.647Z,1.10
2019-03-13T12:05:01.048Z,1.10
2019-03-13T12:07:40.107Z,1.30
2019-03-13T12:10:29.558Z,1.10
2019-03-13T12:13:16.445Z,0.72
2019-03-13T12:15:55.588Z,1.10
2019-03-13T12:18:25.934Z,1.60
2019-03-13T12:21:04.220Z,1.30
2019-03-13T12:23:34.295Z,1.30
2019-03-13T12:26:13.351Z,1.22
2019-03-13T12:28:54.995Z,1.20
2019-03-13T12:31:40.827Z,1.05
2019-03-13T12:34:22.718Z,1.10
2019-03-13T12:37:09.062Z,1.30
2019-03-13T12:39:44.958Z,1.20
2019-03-13T12:42:21.089Z,1.40
2019-03-13T12:44:59.976Z,1.00
2019-03-13T12:47:30.927Z,1.27
2019-03-13T12:50:03.839Z,1.35
2019-03-13T12:52:50.078Z,1.35
2019-03-13T12:55:36.475Z,1.17
2019-03-13T12:58:12.543Z,1.00
2019-03-13T13:00:42.627Z,1.25
2019-03-13T13:03:15.708Z,1.67
2019-03-13T13:05:54.496Z,1.30
2019-03-13T13:08:27.078Z,1.27
2019-03-13T13:11:02.665Z,1.35
2019-03-13T13:13:38.522Z,1.47
2019-03-13T13:16:08.860Z,1.40
2019-03-13T13:18:51.532Z,1.35
2019-03-13T13:21:20.410Z,1.10
2019-03-13T13:23:49.202Z,1.12
2019-03-13T13:26:17.997Z,1.35
2019-03-13T13:28:46.456Z,1.15
2019-03-13T13:31:14.967Z,1.17
2019-03-13T13:33:43.637Z,1.10
2019-03-13T13:36:12.227Z,1.20
2019-03-13T13:38:40.807Z,1.15
2019-03-13T13:41:09.266Z,1.80
2019-03-13T13:43:37.993Z,1.80
2019-03-13T13:46:15.581Z,2.02
2019-03-13T13:48:44.109Z,1.87
2019-03-13T13:51:12.962Z,2.47
2019-03-13T13:53:41.425Z,2.10
2019-03-13T13:56:09.867Z,1.92
2019-03-13T13:58:38.618Z,2.00
2019-03-13T14:01:07.412Z,2.10
2019-03-13T14:03:35.884Z,2.42
2019-03-13T14:06:04.459Z,1.57
2019-03-13T14:08:33.170Z,1.40
2019-03-13T14:11:04.520Z,1.82
2019-03-13T14:13:33.239Z,1.85
2019-03-13T14:16:01.683Z,2.90
2019-03-13T14:18:30.403Z,2.15
2019-03-13T14:20:59.123Z,2.37
2019-03-13T14:23:27.591Z,2.95
2019-03-13T14:25:56.114Z,2.37
2019-03-13T14:28:24.584Z,3.15
2019-03-13T14:30:53.026Z,2.77
2019-03-13T14:33:21.504Z,2.98
2019-03-13T14:35:50.076Z,2.30
2019-03-13T14:38:18.538Z,1.98
2019-03-13T14:40:46.976Z,1.30
2019-03-13T14:43:15.507Z,1.57
2019-03-13T14:45:44.106Z,1.35
2019-03-13T14:48:12.816Z,1.20
2019-03-13T14:50:41.550Z,1.77
2019-03-13T14:53:09.994Z,2.00
2019-03-13T14:55:41.206Z,2.58
2019-03-13T14:58:09.650Z,2.60
2019-03-13T15:00:38.116Z,7.67
2019-03-13T15:03:06.573Z,6.58
2019-03-13T15:05:35.056Z,3.45
2019-03-13T15:08:03.617Z,1.70
2019-03-13T15:10:32.356Z,2.30
2019-03-13T15:13:00.848Z,2.00
2019-03-13T15:15:29.607Z,1.20
2019-03-13T15:17:58.311Z,2.17
2019-03-13T15:20:30.203Z,1.47
2019-03-13T15:22:59.129Z,2.10
2019-03-13T15:25:27.862Z,1.30
2019-03-13T15:27:56.299Z,1.12
2019-03-13T15:30:30.475Z,1.30
2019-03-13T15:32:59.047Z,1.25
2019-03-13T15:35:27.510Z,1.57
2019-03-13T15:37:56.091Z,1.30
2019-03-13T15:40:24.815Z,1.72
2019-03-13T15:42:53.326Z,1.20
2019-03-13T15:45:26.942Z,1.27
2019-03-13T15:47:55.391Z,1.10
2019-03-13T15:50:26.863Z,1.20
2019-03-13T15:52:56.204Z,1.65
2019-03-13T15:55:25.096Z,1.30
2019-03-13T15:57:53.531Z,1.60
2019-03-13T16:00:29.139Z,1.10
2019-03-13T16:02:57.579Z,1.45
2019-03-13T16:05:26.213Z,1.77
2019-03-13T16:07:54.667Z,3.60
2019-03-13T16:10:23.154Z,2.50
2019-03-13T16:12:53.374Z,2.25
2019-03-13T16:15:25.181Z,1.55
2019-03-13T16:17:53.828Z,1.98
2019-03-13T16:20:28.268Z,1.20
2019-03-13T16:22:58.360Z,1.95
2019-03-13T16:25:26.905Z,2.30
2019-03-13T16:27:55.609Z,1.70
2019-03-13T16:30:36.123Z,0.90
2019-03-13T16:33:04.710Z,1.30
2019-03-13T16:35:33.181Z,1.45
2019-03-13T16:38:01.615Z,1.55
2019-03-13T16:40:31.789Z,1.30
2019-03-13T16:43:00.326Z,1.30
2019-03-13T16:45:28.947Z,1.30
2019-03-13T16:47:57.389Z,1.40
2019-03-13T16:50:31.877Z,1.22
2019-03-13T16:53:00.315Z,1.40
2019-03-13T16:55:28.782Z,2.45
2019-03-13T16:57:57.609Z,1.57
2019-03-13T17:00:27.417Z,1.67
2019-03-13T17:02:56.086Z,1.47
2019-03-13T17:05:24.683Z,1.85
2019-03-13T17:07:53.474Z,2.20
2019-03-13T17:10:23.761Z,1.90
2019-03-13T17:12:52.607Z,1.80
2019-03-13T17:15:22.642Z,1.50
2019-03-13T17:17:51.237Z,1.60
2019-03-13T17:20:41.775Z,1.50
2019-03-13T17:23:10.214Z,1.40
2019-03-13T17:25:39.018Z,1.55
2019-03-13T17:28:07.463Z,1.60
2019-03-13T17:30:36.167Z,2.40
2019-03-13T17:33:04.694Z,3.05
2019-03-13T17:35:35.876Z,2.92
2019-03-13T17:38:04.344Z,6.40
2019-03-13T17:40:33.726Z,4.67
2019-03-13T17:43:02.267Z,2.75
2019-03-13T17:45:30.767Z,1.90
2019-03-13T17:47:59.232Z,3.15
2019-03-13T17:50:30.787Z,4.12
2019-03-13T17:52:59.247Z,2.15
2019-03-13T17:55:28.165Z,2.77
2019-03-13T17:57:56.782Z,2.30
2019-03-13T18:00:29.961Z,1.85
2019-03-13T18:02:58.605Z,1.42
2019-03-13T18:05:27.429Z,2.55
2019-03-13T18:07:55.966Z,1.67
2019-03-13T18:10:24.416Z,1.80
2019-03-13T18:12:53.168Z,2.15
2019-03-13T18:15:21.967Z,2.00
2019-03-13T18:17:50.442Z,5.55
2019-03-13T18:20:23.104Z,4.33
2019-03-13T18:22:51.644Z,3.22
2019-03-13T18:25:20.155Z,1.77
2019-03-13T18:27:51.756Z,2.30
2019-03-13T18:30:22.336Z,1.87
2019-03-13T18:32:50.948Z,1.75
2019-03-13T18:35:20.334Z,2.50
2019-03-13T18:37:49.032Z,3.33
2019-03-13T18:40:25.664Z,2.45
2019-03-13T18:42:54.259Z,3.65
2019-03-13T18:45:32.932Z,2.33
2019-03-13T18:48:01.401Z,1.80
2019-03-13T18:50:30.318Z,2.15
2019-03-13T18:52:59.715Z,3.37
2019-03-13T18:55:29.798Z,3.30
2019-03-13T18:57:58.597Z,1.95
2019-03-13T19:00:29.717Z,1.90
2019-03-13T19:02:59.258Z,1.80
2019-03-13T19:05:29.504Z,2.83
2019-03-13T19:07:58.143Z,2.72
2019-03-13T19:10:31.175Z,1.90
2019-03-13T19:13:02.660Z,1.70
2019-03-13T19:15:31.277Z,2.00
2019-03-13T19:18:00.934Z,2.58
2019-03-13T19:20:30.770Z,2.12
2019-03-13T19:22:59.378Z,2.10
2019-03-13T19:25:27.813Z,1.60
2019-03-13T19:28:02.441Z,1.90
2019-03-13T19:30:33.088Z,1.70
2019-03-13T19:33:01.543Z,1.85
2019-03-13T19:35:30.066Z,1.57
2019-03-13T19:38:04.786Z,1.72
2019-03-13T19:40:31.931Z,1.70
2019-03-13T19:43:00.682Z,1.80
2019-03-13T19:45:31.559Z,2.42
2019-03-13T19:48:01.454Z,2.00
2019-03-13T19:50:30.707Z,2.00
2019-03-13T19:52:59.251Z,2.02
2019-03-13T19:55:27.954Z,2.40
2019-03-13T19:57:56.581Z,2.60
2019-03-13T20:00:28.595Z,2.25
2019-03-13T20:03:00.792Z,2.10
2019-03-13T20:05:29.595Z,2.10
2019-03-13T20:08:01.058Z,2.60
2019-03-13T20:10:30.584Z,2.98
2019-03-13T20:12:59.102Z,3.80
2019-03-13T20:15:34.910Z,3.10
2019-03-13T20:18:03.496Z,3.77
2019-03-13T20:20:31.965Z,4.53
2019-03-13T20:23:05.110Z,4.12
2019-03-13T20:25:33.903Z,3.70
2019-03-13T20:28:02.348Z,4.60
2019-03-13T20:30:31.223Z,4.22
2019-03-13T20:32:59.671Z,4.65
2019-03-13T20:35:28.395Z,4.78
2019-03-13T20:37:57.222Z,4.60
2019-03-13T20:40:27.271Z,4.30
2019-03-13T20:42:55.859Z,6.28
2019-03-13T20:45:29.113Z,6.17
2019-03-13T20:47:57.761Z,8.20
2019-03-13T20:50:36.609Z,7.40
2019-03-13T20:52:56.591Z,7.80
2019-03-13T20:55:25.183Z,8.93
2019-03-13T20:57:54.059Z,8.65
2019-03-13T21:00:23.954Z,10.30
2019-03-13T21:02:54.199Z,8.40
2019-03-13T21:05:23.242Z,8.78
2019-03-13T21:07:51.882Z,9.53
2019-03-13T21:10:20.621Z,13.90
2019-03-13T21:12:49.105Z,9.45
2019-03-13T21:15:20.464Z,10.88
2019-03-13T21:17:49.323Z,12.28
2019-03-13T21:20:19.131Z,8.30
2019-03-13T21:22:47.578Z,9.48
2019-03-13T21:25:20.518Z,13.03
2019-03-13T21:27:50.524Z,13.53
2019-03-13T21:30:26.812Z,11.33
2019-03-13T21:32:55.539Z,11.60
2019-03-13T21:35:24.377Z,12.73
2019-03-13T21:37:53.228Z,8.70
2019-03-13T21:40:24.188Z,10.58
2019-03-13T21:42:54.382Z,8.65
2019-03-13T21:45:23.339Z,9.75
2019-03-13T21:47:52.051Z,9.65
2019-03-13T21:50:21.059Z,9.55
2019-03-13T21:52:49.738Z,9.48
2019-03-13T21:55:21.698Z,9.10
2019-03-13T21:57:51.856Z,9.13
2019-03-13T22:00:25.158Z,9.33
2019-03-13T22:02:58.350Z,10.32
2019-03-13T22:05:27.664Z,9.88
2019-03-13T22:07:56.342Z,9.55
2019-03-13T22:10:24.898Z,10.30
2019-03-13T22:12:53.863Z,10.03
2019-03-13T22:15:23.336Z,10.90
2019-03-13T22:17:51.872Z,10.13
2019-03-13T22:20:20.981Z,10.15
2019-03-13T22:22:55.215Z,9.08
2019-03-13T22:25:23.685Z,7.97
2019-03-13T22:27:55.006Z,8.85
2019-03-13T22:30:24.784Z,8.65
2019-03-13T22:32:53.297Z,9.00
2019-03-13T22:35:21.903Z,8.40
2019-03-13T22:37:50.488Z,8.10
2019-03-13T22:40:22.339Z,8.08
2019-03-13T22:42:50.782Z,6.47
2019-03-13T22:45:21.439Z,7.45
2019-03-13T22:47:49.983Z,7.30
2019-03-13T22:50:23.495Z,6.78
2019-03-13T22:52:55.165Z,6.70
2019-03-13T22:55:25.495Z,7.65
2019-03-13T22:57:54.037Z,6.12
2019-03-13T23:00:36.190Z,6.90
2019-03-13T23:03:05.125Z,7.37
2019-03-13T23:05:36.006Z,7.85
2019-03-13T23:08:03.824Z,7.03
2019-03-13T23:10:34.677Z,6.47
2019-03-13T23:13:03.216Z,7.53
2019-03-13T23:15:31.923Z,7.80
2019-03-13T23:18:00.388Z,6.35
2019-03-13T23:20:31.567Z,5.05
2019-03-13T23:23:00.033Z,7.87
2019-03-13T23:25:29.116Z,6.05
2019-03-13T23:27:57.872Z,8.00
2019-03-13T23:30:26.448Z,7.85
2019-03-13T23:32:55.003Z,8.55
2019-03-13T23:35:23.523Z,8.95
2019-03-13T23:37:51.989Z,9.13
2019-03-13T23:40:20.460Z,8.98
2019-03-13T23:42:49.064Z,8.23
2019-03-13T23:45:22.133Z,6.50
2019-03-13T23:47:50.615Z,8.33
2019-03-13T23:50:33.946Z,7.67
2019-03-13T23:53:02.522Z,6.83
2019-03-13T23:55:31.294Z,5.85
2019-03-13T23:57:59.741Z,7.20
